Ogdensburg, NY (13669)

10:50 PM EDT on October 24, 2014 (GMT -0400)
Big Bay Black Lake NY | Change Station
CLOSE
Current Station
Personal Weather Station
Location: Hammond, NY
Elevation: 283 ft
Nearby Weather Stations

Elev 283 ft 44.54 °N, 75.57 °W | Updated 8 minutes ago

Partly Cloudy
Partly Cloudy
47.4 °F
Feels Like 47 °F
N
0.0
Wind Variable Wind from WNW
Gusts 5.0 mph

Today
High -- | Low -- °F
--% Chance of Precip.
Yesterday
High -- | Low -- °F
Precip. -- in
7:29 AM 6:02 PM
New Moon, 2% visible
Pressure 29.86 in
Visibility 10.0 miles
Clouds Overcast 10000 ft
Windchill 47 °F
Dew Point 45 °F
Humidity 91%
Rainfall 0.00 in
Snow Depth Not available.
UV 0.0 out of 12
Pollen .10 out of 12
Air Quality Not available.
Flu Activity Sporadic
METAR KMSS 250153Z AUTO 22008KT 10SM OVC100 09/06 A2985 RMK AO2 SLP109 T00890061

More Conditions Fewer Conditions

Pressure 29.86 in
Visibility 10.0 miles
Clouds Overcast 10000 ft
Windchill 47 °F
Dew Point 45 °F
Humidity 91%
Rainfall 0.00 in
Snow Depth Not available.
UV 0.0 out of 12
Pollen .10 out of 12
Air Quality Not available.
Flu Activity Sporadic
METAR KMSS 250153Z AUTO 22008KT 10SM OVC100 09/06 A2985 RMK AO2 SLP109 T00890061

More Conditions Fewer Conditions

10-Day Weather Forecast

Almanac

Astronomy

Oct. 24, 2014 Rise Set
Actual Time 7:29 AM EDT 6:02 PM EDT
Civil Twilight 6:59 AM EDT 6:32 PM EDT
Nautical Twilight 6:25 AM EDT 7:06 PM EDT
Astronomical Twilight 5:51 AM EDT 7:40 PM EDT
Moon 8:06 AM EDT (10/24) 6:39 PM EDT (10/24)
Length of Visible Light 11h 33m
Length of Day
10h 33m
Tomorrow will be 2m 53s shorter.
New Moon, 2% of the Moon is Illuminated
Today
New Moon
Oct 30
First Quarter
Nov 6
Full
Nov 14
Last Quarter
Nov 22
New

Today's Extremes

State Highs State Lows

Community

WunderPhotos

Upload Photos

1,764,760 photos uploaded!

Nearby

Air Quality

  Air Quality AQ Index Pollutant
Friday Good
PM2.5
Saturday Good
PM2.5
Sunday Good
PM2.5
Monday Good
PM2.5

Snow Depth

Station Depth Elevation
No new snow has been reported.

Earthquake Activity

City Distance Mag. Time & Date
No recent earthquake activity has been reported nearby.
Minimum magnitude displayed is 2.5.

Coastal Water Temperatures

Place Temperature
Alexandria Bay, NY 55.9 °F
Ogdensburg, NY 57.0 °F

Nearby Weather Stations